createdAt,value
2023-04-03T00:01:09.648Z,1.10
2023-04-03T00:06:16.154Z,1.20
2023-04-03T00:11:22.785Z,1.33
2023-04-03T00:16:28.471Z,1.00
2023-04-03T00:21:34.028Z,1.33
2023-04-03T00:26:39.539Z,1.37
2023-04-03T00:31:46.420Z,1.10
2023-04-03T00:36:52.700Z,0.93
2023-04-03T00:41:58.341Z,0.93
2023-04-03T00:47:06.982Z,1.00
2023-04-03T00:52:16.478Z,0.90
2023-04-03T00:57:23.730Z,1.20
2023-04-03T01:02:29.941Z,1.87
2023-04-03T01:07:38.169Z,1.17
2023-04-03T01:12:47.358Z,1.53
2023-04-03T01:17:58.053Z,1.00
2023-04-03T01:23:09.424Z,0.90
2023-04-03T01:28:18.320Z,1.00
2023-04-03T01:33:24.964Z,1.20
2023-04-03T01:38:30.869Z,1.40
2023-04-03T01:43:36.727Z,1.00
2023-04-03T01:48:43.110Z,0.70
2023-04-03T01:53:49.139Z,1.00
2023-04-03T01:58:55.719Z,0.87
2023-04-03T02:04:01.459Z,1.33
2023-04-03T02:09:08.066Z,1.20
2023-04-03T02:14:14.388Z,1.43
2023-04-03T02:19:19.953Z,0.93
2023-04-03T02:24:25.451Z,1.00
2023-04-03T02:29:30.983Z,0.70
2023-04-03T02:34:36.491Z,0.97
2023-04-03T02:39:43.161Z,0.67
2023-04-03T02:44:48.905Z,0.60
2023-04-03T02:49:54.758Z,0.70
2023-04-03T02:55:00.501Z,0.80
2023-04-03T03:00:07.866Z,0.70
2023-04-03T03:05:13.505Z,0.90
2023-04-03T03:10:19.455Z,0.80
2023-04-03T03:15:25.196Z,0.80
2023-04-03T03:20:30.622Z,0.90
2023-04-03T03:25:41.465Z,1.00
2023-04-03T03:30:46.893Z,0.93
2023-04-03T03:35:53.498Z,0.87
2023-04-03T03:40:59.152Z,0.70
2023-04-03T03:46:05.600Z,1.00
2023-04-03T03:51:11.239Z,0.93
2023-04-03T03:56:17.184Z,0.67
2023-04-03T04:01:24.074Z,0.80
2023-04-03T04:06:30.823Z,0.93
2023-04-03T04:11:40.914Z,1.47
2023-04-03T04:16:48.585Z,0.93
2023-04-03T04:21:55.868Z,0.57
2023-04-03T04:27:01.851Z,0.90
2023-04-03T04:32:09.937Z,1.20
2023-04-03T04:37:16.780Z,1.10
2023-04-03T04:42:22.649Z,0.60
2023-04-03T04:47:30.853Z,0.87
2023-04-03T04:52:36.870Z,1.13
2023-04-03T04:57:43.049Z,0.90
2023-04-03T05:02:48.746Z,1.07
2023-04-03T05:07:55.994Z,1.30
2023-04-03T05:13:02.163Z,0.90
2023-04-03T05:18:07.935Z,1.20
2023-04-03T05:23:14.143Z,1.30
2023-04-03T05:28:20.727Z,0.73
2023-04-03T05:33:27.415Z,1.17
2023-04-03T05:38:35.239Z,1.33
2023-04-03T05:43:41.398Z,0.90
2023-04-03T05:48:47.587Z,0.90
2023-04-03T05:53:57.853Z,0.70
2023-04-03T05:59:03.505Z,0.60
2023-04-03T06:04:10.320Z,1.07
2023-04-03T06:09:17.913Z,1.00
2023-04-03T06:14:23.568Z,0.70
2023-04-03T06:19:29.452Z,0.83
2023-04-03T06:24:36.571Z,0.57
2023-04-03T06:29:42.655Z,0.90
2023-04-03T06:34:48.304Z,0.90
2023-04-03T06:39:54.211Z,0.90
2023-04-03T06:44:59.669Z,1.00
2023-04-03T06:50:05.626Z,0.90
2023-04-03T06:55:12.266Z,0.93
2023-04-03T07:00:18.578Z,0.77
2023-04-03T07:05:24.113Z,0.63
2023-04-03T07:10:29.686Z,0.70
2023-04-03T07:15:35.200Z,1.00
2023-04-03T07:20:41.565Z,0.87
2023-04-03T07:25:51.874Z,0.93
2023-04-03T07:31:02.961Z,0.70
2023-04-03T07:36:09.315Z,0.87
2023-04-03T07:41:21.246Z,1.10
2023-04-03T07:46:27.308Z,0.80
2023-04-03T07:51:32.818Z,0.90
2023-04-03T07:56:38.898Z,1.30
2023-04-03T08:01:44.722Z,0.90
2023-04-03T08:06:50.156Z,1.10
2023-04-03T08:11:55.890Z,1.30
2023-04-03T08:17:01.886Z,1.13
2023-04-03T08:22:07.879Z,1.10
2023-04-03T08:27:13.454Z,0.97
2023-04-03T08:32:19.153Z,0.90
2023-04-03T08:37:24.818Z,1.37
2023-04-03T08:42:52.651Z,1.20
2023-04-03T08:48:01.781Z,1.10
2023-04-03T08:53:10.308Z,1.43
2023-04-03T08:58:30.955Z,1.20
2023-04-03T09:03:39.543Z,1.20
2023-04-03T09:08:54.085Z,0.80
2023-04-03T09:14:02.641Z,1.00
2023-04-03T09:19:35.826Z,0.90
2023-04-03T09:24:43.269Z,1.10
2023-04-03T09:29:48.833Z,0.63
2023-04-03T09:34:58.202Z,1.10
2023-04-03T09:40:05.522Z,0.87
2023-04-03T09:45:14.015Z,0.90
2023-04-03T09:50:24.458Z,1.10
2023-04-03T09:55:31.038Z,1.30
2023-04-03T10:00:42.050Z,0.77
2023-04-03T10:05:47.943Z,1.07
2023-04-03T10:11:14.604Z,1.20
2023-04-03T10:16:39.005Z,2.03
2023-04-03T10:21:50.858Z,0.90
2023-04-03T10:27:05.473Z,1.73
2023-04-03T10:32:34.993Z,1.40
2023-04-03T10:37:58.849Z,0.63
2023-04-03T10:43:13.211Z,0.80
2023-04-03T10:48:38.146Z,1.67
2023-04-03T10:54:04.440Z,1.23
2023-04-03T10:59:24.838Z,1.23
2023-04-03T11:04:33.317Z,0.63
2023-04-03T11:09:42.139Z,0.80
2023-04-03T11:14:50.030Z,0.90
2023-04-03T11:19:58.516Z,1.67
2023-04-03T11:25:12.826Z,1.30
2023-04-03T11:30:24.256Z,1.23
2023-04-03T11:35:30.613Z,1.17
2023-04-03T11:40:39.056Z,1.33
2023-04-03T11:46:00.656Z,1.10
2023-04-03T11:51:18.779Z,1.37
2023-04-03T11:56:31.785Z,0.90
2023-04-03T12:01:59.310Z,0.97
2023-04-03T12:07:17.421Z,0.83
2023-04-03T12:12:38.103Z,0.60
2023-04-03T12:17:43.785Z,1.10
2023-04-03T12:23:11.031Z,1.20
2023-04-03T12:28:17.547Z,1.30
2023-04-03T12:33:35.087Z,1.20
2023-04-03T12:39:01.843Z,1.07
2023-04-03T12:44:22.229Z,0.77
2023-04-03T12:49:43.609Z,0.90
2023-04-03T12:54:50.193Z,0.80
2023-04-03T12:59:56.372Z,0.80
2023-04-03T13:05:11.033Z,1.03
2023-04-03T13:10:19.321Z,1.00
2023-04-03T13:15:30.535Z,1.10
2023-04-03T13:20:38.677Z,1.27
2023-04-03T13:25:48.266Z,1.00
2023-04-03T13:30:59.688Z,1.30
2023-04-03T13:36:11.782Z,1.13
2023-04-03T13:41:35.483Z,1.00
2023-04-03T13:46:41.380Z,1.00
2023-04-03T13:51:54.138Z,0.70
2023-04-03T13:56:58.221Z,0.87
2023-04-03T14:02:12.780Z,1.10
2023-04-03T14:07:21.192Z,1.10
2023-04-03T14:12:38.532Z,1.47
2023-04-03T14:17:44.398Z,0.80
2023-04-03T14:22:52.304Z,1.50
2023-04-03T14:27:58.854Z,1.17
2023-04-03T14:33:04.540Z,0.87
2023-04-03T14:38:25.615Z,1.20
2023-04-03T14:43:31.428Z,0.90
2023-04-03T14:48:36.932Z,1.30
2023-04-03T14:53:43.621Z,1.10
2023-04-03T14:58:50.917Z,1.00
2023-04-03T15:03:56.851Z,1.00
2023-04-03T15:09:03.359Z,1.07
2023-04-03T15:14:11.207Z,1.00
2023-04-03T15:19:16.705Z,1.00
2023-04-03T15:24:22.212Z,1.10
2023-04-03T15:29:27.799Z,1.17
2023-04-03T15:34:33.875Z,1.10
2023-04-03T15:39:39.518Z,1.53
2023-04-03T15:44:44.960Z,1.30
2023-04-03T15:49:50.941Z,1.00
2023-04-03T15:54:56.499Z,0.80
2023-04-03T16:00:02.022Z,0.83
2023-04-03T16:05:11.292Z,1.40
2023-04-03T16:10:19.764Z,1.50
2023-04-03T16:15:27.493Z,1.30
2023-04-03T16:20:33.919Z,1.10
2023-04-03T16:25:39.789Z,1.53
2023-04-03T16:30:48.937Z,1.67
2023-04-03T16:35:54.464Z,2.03
2023-04-03T16:41:01.662Z,1.40
2023-04-03T16:46:07.342Z,1.33
2023-04-03T16:51:13.900Z,1.00
2023-04-03T16:56:19.915Z,1.10
2023-04-03T17:01:25.924Z,0.67
2023-04-03T17:06:31.907Z,1.40
2023-04-03T17:11:39.098Z,1.20
2023-04-03T17:16:44.883Z,1.10
2023-04-03T17:21:50.488Z,1.20
2023-04-03T17:26:55.921Z,2.03
2023-04-03T17:32:01.524Z,2.67
2023-04-03T17:37:07.354Z,1.57
2023-04-03T17:42:12.860Z,1.90
2023-04-03T17:47:18.461Z,2.53
2023-04-03T17:52:25.558Z,1.80
2023-04-03T17:57:31.728Z,1.70
2023-04-03T18:02:37.410Z,1.67
2023-04-03T18:07:43.388Z,1.30
2023-04-03T18:12:50.051Z,1.60
2023-04-03T18:17:57.193Z,1.50
2023-04-03T18:23:02.738Z,1.30
2023-04-03T18:28:08.696Z,1.63
2023-04-03T18:33:14.349Z,1.60
2023-04-03T18:38:20.030Z,1.30
2023-04-03T18:43:28.217Z,1.60
2023-04-03T18:48:35.918Z,2.40
2023-04-03T18:53:41.588Z,2.00
2023-04-03T18:58:47.127Z,2.07
2023-04-03T19:03:52.926Z,1.50
2023-04-03T19:08:59.436Z,1.80
2023-04-03T19:14:15.940Z,2.17
2023-04-03T19:19:13.586Z,2.90
2023-04-03T19:24:19.216Z,3.00
2023-04-03T19:29:25.734Z,2.30
2023-04-03T19:34:31.502Z,2.53
2023-04-03T19:39:39.172Z,2.23
2023-04-03T19:44:45.423Z,2.47
2023-04-03T19:49:51.392Z,2.50
2023-04-03T19:54:56.944Z,3.00
2023-04-03T20:00:02.552Z,2.73
2023-04-03T20:05:11.537Z,3.37
2023-04-03T20:10:17.381Z,2.90
2023-04-03T20:15:23.064Z,3.00
2023-04-03T20:20:28.803Z,2.30
2023-04-03T20:30:43.244Z,2.33
2023-04-03T20:35:49.487Z,2.13
2023-04-03T20:40:55.054Z,3.20
2023-04-03T20:46:04.486Z,2.33
2023-04-03T20:51:12.610Z,2.50
2023-04-03T20:56:18.892Z,2.30
2023-04-03T21:01:27.217Z,2.27
2023-04-03T21:07:09.232Z,2.07
2023-04-03T21:12:51.254Z,2.20
2023-04-03T21:18:12.132Z,2.53
2023-04-03T21:23:17.702Z,2.40
2023-04-03T21:28:24.857Z,2.23
2023-04-03T21:33:30.420Z,2.00
2023-04-03T21:38:36.121Z,2.40
2023-04-03T21:43:41.735Z,2.70
2023-04-03T21:48:47.309Z,2.67
2023-04-03T21:53:56.495Z,2.83
2023-04-03T21:59:04.910Z,2.80
2023-04-03T22:04:11.074Z,2.30
2023-04-03T22:09:16.792Z,2.67
2023-04-03T22:14:22.366Z,2.67
2023-04-03T22:19:29.375Z,2.30
2023-04-03T22:24:34.827Z,2.23
2023-04-03T22:29:40.601Z,2.40
2023-04-03T22:34:46.594Z,2.33
2023-04-03T22:39:53.908Z,2.60
2023-04-03T22:44:59.430Z,2.10
2023-04-03T22:50:05.384Z,2.40
2023-04-03T22:55:19.158Z,2.50
2023-04-03T23:00:20.782Z,2.10
2023-04-03T23:05:26.454Z,1.93
2023-04-03T23:10:32.356Z,2.73
2023-04-03T23:15:37.919Z,1.60
2023-04-03T23:20:43.653Z,2.50
2023-04-03T23:25:58.747Z,2.40
2023-04-03T23:31:10.503Z,2.00
2023-04-03T23:36:20.457Z,2.27
2023-04-03T23:41:25.962Z,2.40
2023-04-03T23:46:31.435Z,2.30
2023-04-03T23:51:36.973Z,2.30
2023-04-03T23:56:42.667Z,2.67
